sensor_id;sensor_type;location;lat;lon;timestamp;P1;durP1;ratioP1;P2;durP2;ratioP2
11191;SDS011;5652;48.406;10.820;2023-06-22T00:00:49;12.90;;;7.22;;
11191;SDS011;5652;48.406;10.820;2023-06-22T00:03:16;13.32;;;6.93;;
11191;SDS011;5652;48.406;10.820;2023-06-22T00:05:44;13.05;;;7.28;;
11191;SDS011;5652;48.406;10.820;2023-06-22T00:08:11;12.52;;;7.10;;
11191;SDS011;5652;48.406;10.820;2023-06-22T00:10:40;16.98;;;7.30;;
11191;SDS011;5652;48.406;10.820;2023-06-22T00:13:08;13.48;;;7.55;;
11191;SDS011;5652;48.406;10.820;2023-06-22T00:15:35;13.05;;;6.80;;
11191;SDS011;5652;48.406;10.820;2023-06-22T00:18:05;11.52;;;6.93;;
11191;SDS011;5652;48.406;10.820;2023-06-22T00:20:32;15.80;;;7.43;;
11191;SDS011;5652;48.406;10.820;2023-06-22T00:23:01;14.13;;;6.85;;
11191;SDS011;5652;48.406;10.820;2023-06-22T00:25:33;10.90;;;6.80;;
11191;SDS011;5652;48.406;10.820;2023-06-22T00:28:01;12.30;;;6.57;;
11191;SDS011;5652;48.406;10.820;2023-06-22T00:30:29;14.75;;;7.70;;
11191;SDS011;5652;48.406;10.820;2023-06-22T00:32:56;13.82;;;7.00;;
11191;SDS011;5652;48.406;10.820;2023-06-22T00:35:25;12.82;;;7.07;;
11191;SDS011;5652;48.406;10.820;2023-06-22T00:37:54;11.65;;;7.18;;
11191;SDS011;5652;48.406;10.820;2023-06-22T00:40:26;14.45;;;7.28;;
11191;SDS011;5652;48.406;10.820;2023-06-22T00:42:53;15.20;;;7.38;;
11191;SDS011;5652;48.406;10.820;2023-06-22T00:45:21;12.63;;;7.70;;
11191;SDS011;5652;48.406;10.820;2023-06-22T00:47:49;14.10;;;7.68;;
11191;SDS011;5652;48.406;10.820;2023-06-22T00:50:18;15.90;;;8.00;;
11191;SDS011;5652;48.406;10.820;2023-06-22T00:52:49;15.15;;;8.00;;
11191;SDS011;5652;48.406;10.820;2023-06-22T00:55:18;17.13;;;8.00;;
11191;SDS011;5652;48.406;10.820;2023-06-22T00:57:45;13.67;;;7.83;;
11191;SDS011;5652;48.406;10.820;2023-06-22T01:00:13;17.13;;;8.27;;
11191;SDS011;5652;48.406;10.820;2023-06-22T01:02:41;13.93;;;7.88;;
11191;SDS011;5652;48.406;10.820;2023-06-22T01:05:10;13.18;;;7.63;;
11191;SDS011;5652;48.406;10.820;2023-06-22T01:07:39;12.85;;;7.72;;
11191;SDS011;5652;48.406;10.820;2023-06-22T01:10:10;14.45;;;8.13;;
11191;SDS011;5652;48.406;10.820;2023-06-22T01:12:43;14.60;;;8.30;;
11191;SDS011;5652;48.406;10.820;2023-06-22T01:15:13;13.85;;;7.22;;
11191;SDS011;5652;48.406;10.820;2023-06-22T01:17:42;19.90;;;8.02;;
11191;SDS011;5652;48.406;10.820;2023-06-22T01:20:11;15.02;;;7.50;;
11191;SDS011;5652;48.406;10.820;2023-06-22T01:22:43;13.45;;;7.75;;
11191;SDS011;5652;48.406;10.820;2023-06-22T01:25:16;18.05;;;8.40;;
11191;SDS011;5652;48.406;10.820;2023-06-22T01:27:47;14.15;;;8.15;;
11191;SDS011;5652;48.406;10.820;2023-06-22T01:30:19;14.67;;;7.97;;
11191;SDS011;5652;48.406;10.820;2023-06-22T01:32:46;16.63;;;8.23;;
11191;SDS011;5652;48.406;10.820;2023-06-22T01:35:14;15.37;;;8.53;;
11191;SDS011;5652;48.406;10.820;2023-06-22T01:37:42;15.35;;;8.25;;
11191;SDS011;5652;48.406;10.820;2023-06-22T01:40:09;15.13;;;7.60;;
11191;SDS011;5652;48.406;10.820;2023-06-22T01:42:37;13.90;;;7.95;;
11191;SDS011;5652;48.406;10.820;2023-06-22T01:45:05;14.73;;;8.15;;
11191;SDS011;5652;48.406;10.820;2023-06-22T01:47:35;17.23;;;8.25;;
11191;SDS011;5652;48.406;10.820;2023-06-22T01:50:02;15.48;;;8.63;;
11191;SDS011;5652;48.406;10.820;2023-06-22T01:52:30;12.13;;;7.80;;
11191;SDS011;5652;48.406;10.820;2023-06-22T01:54:59;14.77;;;8.50;;
11191;SDS011;5652;48.406;10.820;2023-06-22T01:57:26;17.05;;;8.35;;
11191;SDS011;5652;48.406;10.820;2023-06-22T01:59:56;13.60;;;8.20;;
11191;SDS011;5652;48.406;10.820;2023-06-22T02:02:24;14.27;;;8.38;;
11191;SDS011;5652;48.406;10.820;2023-06-22T02:04:56;14.27;;;8.32;;
11191;SDS011;5652;48.406;10.820;2023-06-22T02:07:25;19.77;;;8.93;;
11191;SDS011;5652;48.406;10.820;2023-06-22T02:09:55;15.93;;;8.77;;
11191;SDS011;5652;48.406;10.820;2023-06-22T02:12:24;13.55;;;8.38;;
11191;SDS011;5652;48.406;10.820;2023-06-22T02:14:52;16.60;;;9.05;;
11191;SDS011;5652;48.406;10.820;2023-06-22T02:17:20;17.30;;;8.45;;
11191;SDS011;5652;48.406;10.820;2023-06-22T02:19:47;18.48;;;8.98;;
11191;SDS011;5652;48.406;10.820;2023-06-22T02:22:16;15.73;;;8.80;;
11191;SDS011;5652;48.406;10.820;2023-06-22T02:24:43;18.23;;;9.40;;
11191;SDS011;5652;48.406;10.820;2023-06-22T02:27:10;14.63;;;8.85;;
11191;SDS011;5652;48.406;10.820;2023-06-22T02:29:38;16.35;;;8.63;;
11191;SDS011;5652;48.406;10.820;2023-06-22T02:32:05;16.88;;;9.32;;
11191;SDS011;5652;48.406;10.820;2023-06-22T02:34:33;17.30;;;10.27;;
11191;SDS011;5652;48.406;10.820;2023-06-22T02:37:01;18.67;;;10.10;;
11191;SDS011;5652;48.406;10.820;2023-06-22T02:39:30;18.05;;;10.05;;
11191;SDS011;5652;48.406;10.820;2023-06-22T02:41:58;19.48;;;9.70;;
11191;SDS011;5652;48.406;10.820;2023-06-22T02:44:25;16.52;;;9.68;;
11191;SDS011;5652;48.406;10.820;2023-06-22T02:46:52;17.85;;;10.18;;
11191;SDS011;5652;48.406;10.820;2023-06-22T02:49:20;15.57;;;9.63;;
11191;SDS011;5652;48.406;10.820;2023-06-22T02:51:47;19.95;;;10.55;;
11191;SDS011;5652;48.406;10.820;2023-06-22T02:54:15;22.77;;;10.30;;
11191;SDS011;5652;48.406;10.820;2023-06-22T02:56:44;19.25;;;10.57;;
11191;SDS011;5652;48.406;10.820;2023-06-22T02:59:11;16.23;;;10.30;;
11191;SDS011;5652;48.406;10.820;2023-06-22T03:01:38;15.47;;;10.27;;
11191;SDS011;5652;48.406;10.820;2023-06-22T03:04:06;21.77;;;10.80;;
11191;SDS011;5652;48.406;10.820;2023-06-22T03:06:33;19.58;;;11.00;;
11191;SDS011;5652;48.406;10.820;2023-06-22T03:09:01;20.33;;;11.00;;
11191;SDS011;5652;48.406;10.820;2023-06-22T03:11:30;21.17;;;11.40;;
11191;SDS011;5652;48.406;10.820;2023-06-22T03:13:58;18.65;;;10.95;;
11191;SDS011;5652;48.406;10.820;2023-06-22T03:16:27;22.73;;;11.57;;
11191;SDS011;5652;48.406;10.820;2023-06-22T03:18:55;20.83;;;11.80;;
11191;SDS011;5652;48.406;10.820;2023-06-22T03:21:22;21.58;;;12.00;;
11191;SDS011;5652;48.406;10.820;2023-06-22T03:23:49;18.23;;;11.35;;
11191;SDS011;5652;48.406;10.820;2023-06-22T03:26:17;18.08;;;11.35;;
11191;SDS011;5652;48.406;10.820;2023-06-22T03:28:45;21.07;;;11.87;;
11191;SDS011;5652;48.406;10.820;2023-06-22T03:31:14;20.95;;;10.80;;
11191;SDS011;5652;48.406;10.820;2023-06-22T03:33:41;21.45;;;11.48;;
11191;SDS011;5652;48.406;10.820;2023-06-22T03:36:08;22.92;;;11.77;;
11191;SDS011;5652;48.406;10.820;2023-06-22T03:38:35;21.83;;;12.37;;
11191;SDS011;5652;48.406;10.820;2023-06-22T03:41:02;17.45;;;11.23;;
11191;SDS011;5652;48.406;10.820;2023-06-22T03:43:30;19.98;;;11.25;;
11191;SDS011;5652;48.406;10.820;2023-06-22T03:45:57;21.57;;;10.90;;
11191;SDS011;5652;48.406;10.820;2023-06-22T03:48:25;20.77;;;11.10;;
11191;SDS011;5652;48.406;10.820;2023-06-22T03:50:53;17.13;;;10.88;;
11191;SDS011;5652;48.406;10.820;2023-06-22T03:53:20;19.88;;;10.88;;
11191;SDS011;5652;48.406;10.820;2023-06-22T03:55:47;19.23;;;11.03;;
11191;SDS011;5652;48.406;10.820;2023-06-22T03:58:15;15.75;;;10.70;;
11191;SDS011;5652;48.406;10.820;2023-06-22T04:00:45;19.65;;;10.45;;
11191;SDS011;5652;48.406;10.820;2023-06-22T04:03:12;19.85;;;10.60;;
11191;SDS011;5652;48.406;10.820;2023-06-22T04:05:41;17.80;;;10.52;;
11191;SDS011;5652;48.406;10.820;2023-06-22T04:08:08;17.80;;;10.52;;
11191;SDS011;5652;48.406;10.820;2023-06-22T04:10:36;15.43;;;9.75;;
11191;SDS011;5652;48.406;10.820;2023-06-22T04:13:03;16.80;;;9.75;;
11191;SDS011;5652;48.406;10.820;2023-06-22T04:15:30;14.75;;;9.18;;
11191;SDS011;5652;48.406;10.820;2023-06-22T04:17:58;18.10;;;9.70;;
11191;SDS011;5652;48.406;10.820;2023-06-22T04:23:13;12.73;;;8.95;;
11191;SDS011;5652;48.406;10.820;2023-06-22T04:25:40;14.88;;;9.00;;
11191;SDS011;5652;48.406;10.820;2023-06-22T04:28:07;15.20;;;8.85;;
11191;SDS011;5652;48.406;10.820;2023-06-22T04:30:37;14.27;;;8.98;;
11191;SDS011;5652;48.406;10.820;2023-06-22T04:33:11;16.40;;;9.15;;
11191;SDS011;5652;48.406;10.820;2023-06-22T04:35:41;18.42;;;9.93;;
11191;SDS011;5652;48.406;10.820;2023-06-22T04:38:09;14.07;;;8.95;;
11191;SDS011;5652;48.406;10.820;2023-06-22T04:40:45;14.95;;;9.52;;
11191;SDS011;5652;48.406;10.820;2023-06-22T04:43:12;17.95;;;10.80;;
11191;SDS011;5652;48.406;10.820;2023-06-22T04:45:40;17.17;;;9.07;;
11191;SDS011;5652;48.406;10.820;2023-06-22T04:48:07;16.60;;;9.85;;
11191;SDS011;5652;48.406;10.820;2023-06-22T04:50:35;20.92;;;9.80;;
11191;SDS011;5652;48.406;10.820;2023-06-22T04:53:04;16.17;;;9.00;;
11191;SDS011;5652;48.406;10.820;2023-06-22T04:55:32;15.18;;;9.43;;
11191;SDS011;5652;48.406;10.820;2023-06-22T04:58:01;18.30;;;9.25;;
11191;SDS011;5652;48.406;10.820;2023-06-22T05:00:29;14.07;;;9.10;;
11191;SDS011;5652;48.406;10.820;2023-06-22T05:02:57;14.38;;;9.18;;
11191;SDS011;5652;48.406;10.820;2023-06-22T05:05:24;18.75;;;8.52;;
11191;SDS011;5652;48.406;10.820;2023-06-22T05:07:51;14.02;;;8.68;;
11191;SDS011;5652;48.406;10.820;2023-06-22T05:10:20;16.35;;;8.93;;
11191;SDS011;5652;48.406;10.820;2023-06-22T05:12:47;17.27;;;9.15;;
11191;SDS011;5652;48.406;10.820;2023-06-22T05:15:16;13.23;;;8.73;;
11191;SDS011;5652;48.406;10.820;2023-06-22T05:17:44;16.05;;;8.88;;
11191;SDS011;5652;48.406;10.820;2023-06-22T05:20:12;15.30;;;8.57;;
11191;SDS011;5652;48.406;10.820;2023-06-22T05:22:43;14.60;;;8.77;;
11191;SDS011;5652;48.406;10.820;2023-06-22T05:25:10;12.95;;;8.40;;
11191;SDS011;5652;48.406;10.820;2023-06-22T05:27:38;15.77;;;8.27;;
11191;SDS011;5652;48.406;10.820;2023-06-22T05:30:05;14.25;;;8.20;;
11191;SDS011;5652;48.406;10.820;2023-06-22T05:32:34;12.00;;;7.95;;
11191;SDS011;5652;48.406;10.820;2023-06-22T05:35:02;12.85;;;7.78;;
11191;SDS011;5652;48.406;10.820;2023-06-22T05:37:29;14.77;;;8.13;;
11191;SDS011;5652;48.406;10.820;2023-06-22T05:39:56;13.35;;;8.00;;
11191;SDS011;5652;48.406;10.820;2023-06-22T05:42:24;13.82;;;7.38;;
11191;SDS011;5652;48.406;10.820;2023-06-22T05:44:51;12.55;;;7.40;;
11191;SDS011;5652;48.406;10.820;2023-06-22T05:47:24;10.52;;;6.82;;
11191;SDS011;5652;48.406;10.820;2023-06-22T05:49:53;11.70;;;7.00;;
11191;SDS011;5652;48.406;10.820;2023-06-22T05:52:20;10.85;;;6.80;;
11191;SDS011;5652;48.406;10.820;2023-06-22T05:54:48;10.35;;;6.85;;
11191;SDS011;5652;48.406;10.820;2023-06-22T05:57:17;10.52;;;6.53;;
11191;SDS011;5652;48.406;10.820;2023-06-22T05:59:46;12.67;;;6.57;;
11191;SDS011;5652;48.406;10.820;2023-06-22T06:02:14;12.68;;;6.30;;
11191;SDS011;5652;48.406;10.820;2023-06-22T06:04:41;9.20;;;6.03;;
11191;SDS011;5652;48.406;10.820;2023-06-22T06:07:10;10.98;;;6.10;;
11191;SDS011;5652;48.406;10.820;2023-06-22T06:09:37;10.80;;;6.60;;
11191;SDS011;5652;48.406;10.820;2023-06-22T06:12:05;10.13;;;6.38;;
11191;SDS011;5652;48.406;10.820;2023-06-22T06:14:32;11.20;;;6.45;;
11191;SDS011;5652;48.406;10.820;2023-06-22T06:16:59;9.57;;;6.10;;
11191;SDS011;5652;48.406;10.820;2023-06-22T06:19:27;10.15;;;6.30;;
11191;SDS011;5652;48.406;10.820;2023-06-22T06:21:54;10.85;;;5.65;;
11191;SDS011;5652;48.406;10.820;2023-06-22T06:24:23;8.65;;;5.97;;
11191;SDS011;5652;48.406;10.820;2023-06-22T06:26:50;10.90;;;5.82;;
11191;SDS011;5652;48.406;10.820;2023-06-22T06:29:17;10.25;;;5.85;;
11191;SDS011;5652;48.406;10.820;2023-06-22T06:31:44;10.13;;;5.43;;
11191;SDS011;5652;48.406;10.820;2023-06-22T06:34:13;13.98;;;5.63;;
11191;SDS011;5652;48.406;10.820;2023-06-22T06:36:40;10.30;;;6.35;;
11191;SDS011;5652;48.406;10.820;2023-06-22T06:39:07;8.35;;;5.22;;
11191;SDS011;5652;48.406;10.820;2023-06-22T06:41:36;11.15;;;5.80;;
11191;SDS011;5652;48.406;10.820;2023-06-22T06:44:03;9.20;;;5.80;;
11191;SDS011;5652;48.406;10.820;2023-06-22T06:46:30;10.53;;;5.60;;
11191;SDS011;5652;48.406;10.820;2023-06-22T06:48:58;10.63;;;5.30;;
11191;SDS011;5652;48.406;10.820;2023-06-22T06:51:25;9.55;;;5.43;;
11191;SDS011;5652;48.406;10.820;2023-06-22T06:53:55;10.05;;;4.97;;
11191;SDS011;5652;48.406;10.820;2023-06-22T06:56:23;7.97;;;5.20;;
11191;SDS011;5652;48.406;10.820;2023-06-22T06:58:51;10.73;;;5.00;;
11191;SDS011;5652;48.406;10.820;2023-06-22T07:01:19;9.63;;;4.63;;
11191;SDS011;5652;48.406;10.820;2023-06-22T07:03:46;10.82;;;4.50;;
11191;SDS011;5652;48.406;10.820;2023-06-22T07:06:13;12.30;;;5.00;;
11191;SDS011;5652;48.406;10.820;2023-06-22T07:08:41;10.27;;;4.63;;
11191;SDS011;5652;48.406;10.820;2023-06-22T07:11:10;7.53;;;4.55;;
11191;SDS011;5652;48.406;10.820;2023-06-22T07:13:37;8.60;;;4.55;;
11191;SDS011;5652;48.406;10.820;2023-06-22T07:16:06;9.13;;;4.80;;
11191;SDS011;5652;48.406;10.820;2023-06-22T07:18:33;7.65;;;4.85;;
11191;SDS011;5652;48.406;10.820;2023-06-22T07:21:00;8.32;;;4.72;;
11191;SDS011;5652;48.406;10.820;2023-06-22T07:23:31;10.63;;;5.22;;
11191;SDS011;5652;48.406;10.820;2023-06-22T07:25:58;10.13;;;5.00;;
11191;SDS011;5652;48.406;10.820;2023-06-22T07:28:27;9.10;;;4.90;;
11191;SDS011;5652;48.406;10.820;2023-06-22T07:30:56;8.30;;;5.07;;
11191;SDS011;5652;48.406;10.820;2023-06-22T07:33:25;9.40;;;4.90;;
11191;SDS011;5652;48.406;10.820;2023-06-22T07:35:52;11.30;;;4.93;;
11191;SDS011;5652;48.406;10.820;2023-06-22T07:38:20;10.10;;;4.85;;
11191;SDS011;5652;48.406;10.820;2023-06-22T07:40:48;10.45;;;4.80;;
11191;SDS011;5652;48.406;10.820;2023-06-22T07:43:17;10.68;;;4.80;;
11191;SDS011;5652;48.406;10.820;2023-06-22T07:45:47;10.60;;;5.25;;
11191;SDS011;5652;48.406;10.820;2023-06-22T07:48:17;11.20;;;4.88;;
11191;SDS011;5652;48.406;10.820;2023-06-22T07:50:45;10.30;;;4.80;;
11191;SDS011;5652;48.406;10.820;2023-06-22T07:53:13;10.60;;;5.13;;
11191;SDS011;5652;48.406;10.820;2023-06-22T07:55:40;10.27;;;4.70;;
11191;SDS011;5652;48.406;10.820;2023-06-22T07:58:07;9.75;;;4.88;;
11191;SDS011;5652;48.406;10.820;2023-06-22T08:00:38;10.43;;;4.60;;
11191;SDS011;5652;48.406;10.820;2023-06-22T08:03:05;11.63;;;4.75;;
11191;SDS011;5652;48.406;10.820;2023-06-22T08:05:33;11.23;;;5.45;;
11191;SDS011;5652;48.406;10.820;2023-06-22T08:08:02;9.38;;;4.85;;
11191;SDS011;5652;48.406;10.820;2023-06-22T08:10:32;11.43;;;4.75;;
11191;SDS011;5652;48.406;10.820;2023-06-22T08:12:59;10.90;;;5.22;;
11191;SDS011;5652;48.406;10.820;2023-06-22T08:15:26;8.63;;;4.95;;
11191;SDS011;5652;48.406;10.820;2023-06-22T08:17:54;8.37;;;4.90;;
11191;SDS011;5652;48.406;10.820;2023-06-22T08:20:23;9.13;;;4.67;;
11191;SDS011;5652;48.406;10.820;2023-06-22T08:22:50;13.27;;;4.70;;
11191;SDS011;5652;48.406;10.820;2023-06-22T08:25:18;12.75;;;5.60;;
11191;SDS011;5652;48.406;10.820;2023-06-22T08:27:46;8.18;;;4.85;;
11191;SDS011;5652;48.406;10.820;2023-06-22T08:30:13;11.20;;;5.25;;
11191;SDS011;5652;48.406;10.820;2023-06-22T08:32:41;12.20;;;5.00;;
11191;SDS011;5652;48.406;10.820;2023-06-22T08:35:08;12.13;;;4.93;;
11191;SDS011;5652;48.406;10.820;2023-06-22T08:37:37;9.60;;;5.57;;
11191;SDS011;5652;48.406;10.820;2023-06-22T08:40:07;12.02;;;4.93;;
11191;SDS011;5652;48.406;10.820;2023-06-22T08:42:37;9.38;;;4.82;;
11191;SDS011;5652;48.406;10.820;2023-06-22T08:45:14;10.10;;;5.13;;
11191;SDS011;5652;48.406;10.820;2023-06-22T08:47:42;8.15;;;4.80;;
11191;SDS011;5652;48.406;10.820;2023-06-22T08:50:09;9.00;;;4.97;;
11191;SDS011;5652;48.406;10.820;2023-06-22T08:52:39;8.88;;;5.03;;
11191;SDS011;5652;48.406;10.820;2023-06-22T08:55:07;12.55;;;5.85;;
11191;SDS011;5652;48.406;10.820;2023-06-22T08:57:34;11.50;;;5.60;;
11191;SDS011;5652;48.406;10.820;2023-06-22T09:00:06;12.35;;;5.47;;
11191;SDS011;5652;48.406;10.820;2023-06-22T09:02:40;13.38;;;5.35;;
11191;SDS011;5652;48.406;10.820;2023-06-22T09:05:08;12.27;;;5.60;;
11191;SDS011;5652;48.406;10.820;2023-06-22T09:07:36;12.57;;;5.10;;
11191;SDS011;5652;48.406;10.820;2023-06-22T09:10:03;12.82;;;5.13;;
11191;SDS011;5652;48.406;10.820;2023-06-22T09:12:32;15.68;;;5.38;;
11191;SDS011;5652;48.406;10.820;2023-06-22T09:15:02;11.50;;;4.95;;
11191;SDS011;5652;48.406;10.820;2023-06-22T09:17:30;10.20;;;5.65;;
11191;SDS011;5652;48.406;10.820;2023-06-22T09:19:58;11.27;;;5.28;;
11191;SDS011;5652;48.406;10.820;2023-06-22T09:22:31;11.93;;;5.28;;
11191;SDS011;5652;48.406;10.820;2023-06-22T09:24:58;14.73;;;5.63;;
11191;SDS011;5652;48.406;10.820;2023-06-22T09:27:26;14.95;;;5.57;;
11191;SDS011;5652;48.406;10.820;2023-06-22T09:29:53;8.95;;;5.22;;
11191;SDS011;5652;48.406;10.820;2023-06-22T09:32:20;16.63;;;5.82;;
11191;SDS011;5652;48.406;10.820;2023-06-22T09:34:53;14.93;;;5.53;;
11191;SDS011;5652;48.406;10.820;2023-06-22T09:37:20;10.80;;;5.47;;
11191;SDS011;5652;48.406;10.820;2023-06-22T09:39:47;10.18;;;5.20;;
11191;SDS011;5652;48.406;10.820;2023-06-22T09:42:16;11.40;;;4.90;;
11191;SDS011;5652;48.406;10.820;2023-06-22T09:44:43;11.10;;;5.87;;
11191;SDS011;5652;48.406;10.820;2023-06-22T09:47:10;14.95;;;5.50;;
11191;SDS011;5652;48.406;10.820;2023-06-22T09:49:37;12.02;;;5.30;;
11191;SDS011;5652;48.406;10.820;2023-06-22T09:52:06;10.15;;;5.25;;
11191;SDS011;5652;48.406;10.820;2023-06-22T09:54:34;10.57;;;5.25;;
11191;SDS011;5652;48.406;10.820;2023-06-22T09:57:01;12.52;;;4.75;;
11191;SDS011;5652;48.406;10.820;2023-06-22T09:59:28;16.20;;;5.70;;
11191;SDS011;5652;48.406;10.820;2023-06-22T10:01:57;12.38;;;4.93;;
11191;SDS011;5652;48.406;10.820;2023-06-22T10:04:26;14.05;;;5.43;;
11191;SDS011;5652;48.406;10.820;2023-06-22T10:06:54;11.57;;;4.83;;
11191;SDS011;5652;48.406;10.820;2023-06-22T10:09:22;9.57;;;5.20;;
11191;SDS011;5652;48.406;10.820;2023-06-22T10:11:49;14.52;;;5.80;;
11191;SDS011;5652;48.406;10.820;2023-06-22T10:14:17;12.73;;;5.55;;
11191;SDS011;5652;48.406;10.820;2023-06-22T10:16:44;12.45;;;5.40;;
11191;SDS011;5652;48.406;10.820;2023-06-22T10:19:11;14.55;;;5.78;;
11191;SDS011;5652;48.406;10.820;2023-06-22T10:21:38;14.20;;;6.03;;
11191;SDS011;5652;48.406;10.820;2023-06-22T10:24:05;10.50;;;4.88;;
11191;SDS011;5652;48.406;10.820;2023-06-22T10:26:35;12.40;;;4.65;;
11191;SDS011;5652;48.406;10.820;2023-06-22T10:29:02;11.70;;;5.03;;
11191;SDS011;5652;48.406;10.820;2023-06-22T10:31:30;14.40;;;5.40;;
11191;SDS011;5652;48.406;10.820;2023-06-22T10:33:57;13.95;;;4.85;;
11191;SDS011;5652;48.406;10.820;2023-06-22T10:36:24;16.17;;;5.13;;
11191;SDS011;5652;48.406;10.820;2023-06-22T10:38:51;12.48;;;5.10;;
11191;SDS011;5652;48.406;10.820;2023-06-22T10:41:20;18.38;;;5.80;;
11191;SDS011;5652;48.406;10.820;2023-06-22T10:43:49;14.57;;;5.18;;
11191;SDS011;5652;48.406;10.820;2023-06-22T10:46:16;13.15;;;5.53;;
11191;SDS011;5652;48.406;10.820;2023-06-22T10:48:43;13.38;;;5.30;;
11191;SDS011;5652;48.406;10.820;2023-06-22T10:51:10;13.90;;;6.05;;
11191;SDS011;5652;48.406;10.820;2023-06-22T10:53:37;19.08;;;6.25;;
11191;SDS011;5652;48.406;10.820;2023-06-22T10:56:04;15.63;;;5.85;;
11191;SDS011;5652;48.406;10.820;2023-06-22T10:58:32;13.73;;;5.10;;
11191;SDS011;5652;48.406;10.820;2023-06-22T11:01:00;14.03;;;5.60;;
11191;SDS011;5652;48.406;10.820;2023-06-22T11:03:28;14.23;;;5.07;;
11191;SDS011;5652;48.406;10.820;2023-06-22T11:05:55;16.15;;;5.35;;
11191;SDS011;5652;48.406;10.820;2023-06-22T11:08:22;14.88;;;5.20;;
11191;SDS011;5652;48.406;10.820;2023-06-22T11:10:50;11.18;;;5.20;;
11191;SDS011;5652;48.406;10.820;2023-06-22T11:13:18;14.02;;;5.40;;
11191;SDS011;5652;48.406;10.820;2023-06-22T11:15:45;13.82;;;5.20;;
11191;SDS011;5652;48.406;10.820;2023-06-22T11:18:13;11.55;;;5.65;;
11191;SDS011;5652;48.406;10.820;2023-06-22T11:20:42;14.65;;;5.57;;
11191;SDS011;5652;48.406;10.820;2023-06-22T11:23:09;10.88;;;5.68;;
11191;SDS011;5652;48.406;10.820;2023-06-22T11:25:37;10.95;;;5.35;;
11191;SDS011;5652;48.406;10.820;2023-06-22T11:28:04;14.00;;;5.67;;
11191;SDS011;5652;48.406;10.820;2023-06-22T11:30:32;13.35;;;5.97;;
11191;SDS011;5652;48.406;10.820;2023-06-22T11:32:59;13.52;;;5.68;;
11191;SDS011;5652;48.406;10.820;2023-06-22T11:35:28;13.15;;;5.30;;
11191;SDS011;5652;48.406;10.820;2023-06-22T11:37:55;13.23;;;5.03;;
11191;SDS011;5652;48.406;10.820;2023-06-22T11:40:23;15.30;;;5.60;;
11191;SDS011;5652;48.406;10.820;2023-06-22T11:42:51;13.20;;;5.22;;
11191;SDS011;5652;48.406;10.820;2023-06-22T11:45:18;11.88;;;5.22;;
11191;SDS011;5652;48.406;10.820;2023-06-22T11:47:45;13.93;;;5.55;;
11191;SDS011;5652;48.406;10.820;2023-06-22T11:50:13;13.10;;;5.70;;
11191;SDS011;5652;48.406;10.820;2023-06-22T11:52:42;15.57;;;5.10;;
11191;SDS011;5652;48.406;10.820;2023-06-22T11:55:09;15.38;;;5.50;;
11191;SDS011;5652;48.406;10.820;2023-06-22T11:57:36;14.23;;;5.15;;
11191;SDS011;5652;48.406;10.820;2023-06-22T12:00:04;14.32;;;5.88;;
11191;SDS011;5652;48.406;10.820;2023-06-22T12:02:42;12.25;;;5.70;;
11191;SDS011;5652;48.406;10.820;2023-06-22T12:05:10;14.32;;;5.07;;
11191;SDS011;5652;48.406;10.820;2023-06-22T12:07:37;14.60;;;5.38;;
11191;SDS011;5652;48.406;10.820;2023-06-22T12:10:06;12.15;;;5.10;;
11191;SDS011;5652;48.406;10.820;2023-06-22T12:12:34;16.88;;;5.53;;
11191;SDS011;5652;48.406;10.820;2023-06-22T12:15:01;13.25;;;5.57;;
11191;SDS011;5652;48.406;10.820;2023-06-22T12:17:29;12.00;;;5.45;;
11191;SDS011;5652;48.406;10.820;2023-06-22T12:19:56;10.03;;;5.20;;
11191;SDS011;5652;48.406;10.820;2023-06-22T12:22:23;13.82;;;5.38;;
11191;SDS011;5652;48.406;10.820;2023-06-22T12:24:50;13.38;;;5.55;;
11191;SDS011;5652;48.406;10.820;2023-06-22T12:27:19;17.00;;;5.53;;
11191;SDS011;5652;48.406;10.820;2023-06-22T12:29:46;12.13;;;4.80;;
11191;SDS011;5652;48.406;10.820;2023-06-22T12:32:13;16.15;;;5.82;;
11191;SDS011;5652;48.406;10.820;2023-06-22T12:34:41;16.42;;;5.07;;
11191;SDS011;5652;48.406;10.820;2023-06-22T12:37:08;13.93;;;5.45;;
11191;SDS011;5652;48.406;10.820;2023-06-22T12:39:35;16.35;;;5.60;;
11191;SDS011;5652;48.406;10.820;2023-06-22T12:42:03;17.70;;;5.57;;
11191;SDS011;5652;48.406;10.820;2023-06-22T12:44:33;14.70;;;5.47;;
11191;SDS011;5652;48.406;10.820;2023-06-22T12:47:00;14.75;;;6.45;;
11191;SDS011;5652;48.406;10.820;2023-06-22T12:49:28;16.27;;;5.45;;
11191;SDS011;5652;48.406;10.820;2023-06-22T12:51:55;16.67;;;5.30;;
11191;SDS011;5652;48.406;10.820;2023-06-22T12:54:22;14.80;;;5.35;;
11191;SDS011;5652;48.406;10.820;2023-06-22T12:56:50;21.08;;;5.60;;
11191;SDS011;5652;48.406;10.820;2023-06-22T12:59:17;18.33;;;6.18;;
11191;SDS011;5652;48.406;10.820;2023-06-22T13:01:45;14.90;;;5.35;;
11191;SDS011;5652;48.406;10.820;2023-06-22T13:04:13;15.93;;;5.75;;
11191;SDS011;5652;48.406;10.820;2023-06-22T13:06:40;14.23;;;4.97;;
11191;SDS011;5652;48.406;10.820;2023-06-22T13:09:07;17.42;;;5.25;;
11191;SDS011;5652;48.406;10.820;2023-06-22T13:11:34;17.20;;;5.30;;
11191;SDS011;5652;48.406;10.820;2023-06-22T13:14:02;16.80;;;5.90;;
11191;SDS011;5652;48.406;10.820;2023-06-22T13:16:29;14.38;;;5.72;;
11191;SDS011;5652;48.406;10.820;2023-06-22T13:18:57;17.25;;;5.28;;
11191;SDS011;5652;48.406;10.820;2023-06-22T13:21:24;13.65;;;5.47;;
11191;SDS011;5652;48.406;10.820;2023-06-22T13:23:51;10.77;;;4.97;;
11191;SDS011;5652;48.406;10.820;2023-06-22T13:26:18;12.38;;;5.43;;
11191;SDS011;5652;48.406;10.820;2023-06-22T13:28:46;18.65;;;5.55;;
11191;SDS011;5652;48.406;10.820;2023-06-22T13:31:13;13.23;;;5.27;;
11191;SDS011;5652;48.406;10.820;2023-06-22T13:33:40;22.02;;;5.88;;
11191;SDS011;5652;48.406;10.820;2023-06-22T13:36:10;12.98;;;5.25;;
11191;SDS011;5652;48.406;10.820;2023-06-22T13:38:37;14.73;;;5.57;;
11191;SDS011;5652;48.406;10.820;2023-06-22T13:41:05;12.90;;;5.40;;
11191;SDS011;5652;48.406;10.820;2023-06-22T13:43:32;14.23;;;5.32;;
11191;SDS011;5652;48.406;10.820;2023-06-22T13:45:59;17.00;;;5.43;;
11191;SDS011;5652;48.406;10.820;2023-06-22T13:48:26;12.70;;;5.43;;
11191;SDS011;5652;48.406;10.820;2023-06-22T13:50:53;13.75;;;5.28;;
11191;SDS011;5652;48.406;10.820;2023-06-22T13:53:22;15.57;;;4.93;;
11191;SDS011;5652;48.406;10.820;2023-06-22T13:55:49;15.70;;;4.70;;
11191;SDS011;5652;48.406;10.820;2023-06-22T13:58:16;13.20;;;4.40;;
11191;SDS011;5652;48.406;10.820;2023-06-22T14:00:44;14.45;;;5.45;;
11191;SDS011;5652;48.406;10.820;2023-06-22T14:03:12;11.70;;;5.13;;
11191;SDS011;5652;48.406;10.820;2023-06-22T14:05:41;12.68;;;5.00;;
11191;SDS011;5652;48.406;10.820;2023-06-22T14:08:08;12.73;;;4.75;;
11191;SDS011;5652;48.406;10.820;2023-06-22T14:10:36;15.20;;;5.05;;
11191;SDS011;5652;48.406;10.820;2023-06-22T14:13:03;12.73;;;5.50;;
11191;SDS011;5652;48.406;10.820;2023-06-22T14:15:31;13.73;;;5.28;;
11191;SDS011;5652;48.406;10.820;2023-06-22T14:17:59;10.90;;;4.70;;
11191;SDS011;5652;48.406;10.820;2023-06-22T14:20:26;11.77;;;5.03;;
11191;SDS011;5652;48.406;10.820;2023-06-22T14:22:53;12.75;;;5.00;;
11191;SDS011;5652;48.406;10.820;2023-06-22T14:25:20;13.43;;;4.90;;
11191;SDS011;5652;48.406;10.820;2023-06-22T14:27:48;14.98;;;5.10;;
11191;SDS011;5652;48.406;10.820;2023-06-22T14:30:16;13.57;;;4.95;;
11191;SDS011;5652;48.406;10.820;2023-06-22T14:32:43;17.60;;;5.57;;
11191;SDS011;5652;48.406;10.820;2023-06-22T14:35:11;14.80;;;5.55;;
11191;SDS011;5652;48.406;10.820;2023-06-22T14:37:38;12.23;;;5.40;;
11191;SDS011;5652;48.406;10.820;2023-06-22T14:40:05;14.68;;;4.97;;